Friday, July 01, 2016
20:42 UTC
  |  Log In   |  Register Free
Airport Search:

Owatonna Degner Regional Airport
(KOWA)

Owatonna Degner Regional Airport Diagram
No Airport Diagram Available

FAA data valid effective May 26 2016 - Jul 21 2016 (unless otherwise noted).

 
 
 
 
 
 
 
 
 
 
 
 
 
 
Current Aviation Weather for KOWA

Weather Summary


The most recent METAR observation for OWA was updated at: 12:41 UTC
METAR for KOWA is not available. Closest METAR is for KFBL
KOWA  (most recent observation was updatred at 12:03 UTC)
012035Z AUTO 00000KT 10SM CLR 21/08 A3017 RMK AO2

KFBL  (12.5 nm SE)   (most recent observation was updated at 12:03 UTC)
012033Z AUTO 34003KT 10SM CLR 22/11 A3017 RMK AO2

KACQ  (13.0 nm NE)   (most recent observation was updated at 12:03 UTC)
012035Z AUTO 22003KT 10SM CLR 21/10 A3018 RMK AO2

TAF for KOWA is not available.
GlobalAir.com is loading additional information.
 Current Weather at OWA
66.0 F° (19.0 C°)

North winds at 0.0 mph
Pressure:
30.18 in
Humidity:
52%
Wind:
North at 0.0 mph
Dew Point:
48.2 F° (9.0 C°)
Visibility:
10.00 mi
OWA NOAA Radar




Find All Airport Services Find A Hotel Find A Rental Car Find A Golf Course Find A Restaurant $100 Hamburger



Airport Weather Forecast for KOWA

Translated METAR for KOWA (2035 UTC)
METAR:
KOWA 012035Z AUTO 00000KT 10SM CLR 21/08 A3017 RMK AO2
Conditions at:
KOWA (Owatonna Degner Rgnl, MN) observed 2035 UTC 01 July 2016
Temperature:
21°C (69.8°F)
Dewpoint:
8°C (46.4°F) [RH = 43.2]
Pressure:
30.17 inches Hg (1021.7 mb)
Winds:
from the N (000 degrees) at 0 mph (0 knots: 0 m/s)
Visibility:
10 mile(s)
Ceiling:
at least 12,000 feet AGL
Clouds:
Clear below 12,000 feet AGL
Remarks:
site is un-manned
site is automated and HAS a precipitation sensor

Translated TAF for TAF for OWA is not available. Refer to local area forecast.
FBO's on the Field
FBO Company Facility Photos Services Transportation Aviation Fuel Prices: Prices include tax
Catering Weather Repair Courtesy Rental Type 100LL JetA JetA+ MOGAS 8087
 
Owatonna Degner Regional Airport

This FBO has not yet been rated
FS:Avfuel
Last Updated: May-25
Login to update fuel prices
SS:
Contact Owatonna Degner Regional AirportMore FBO Information
 
Add another FBO Facility Photos Catering Weather Repair Courtesy Rental Type 100LL JetA JetA+ MOGAS 8087
Services Transportation Aviation Fuel Prices: Prices include tax


model-print
model-print
model-print
model-print